sensor_id;sensor_type;location;lat;lon;timestamp;P1;P2;P0
76043;PMS7003;64740;34.694;33.088;2024-02-21T00:04:28;11.6;10.1;6.4
76043;PMS7003;64740;34.694;33.088;2024-02-21T00:09:28;13;10.5;6.1
76043;PMS7003;64740;34.694;33.088;2024-02-21T00:14:44;12.9;10.9;6.9
76043;PMS7003;64740;34.694;33.088;2024-02-21T00:20:03;12.5;10.3;6.2
76043;PMS7003;64740;34.694;33.088;2024-02-21T00:24:50;12.5;10.3;6.2
76043;PMS7003;64740;34.694;33.088;2024-02-21T00:30:00;11.9;10.3;6.5
76043;PMS7003;64740;34.694;33.088;2024-02-21T00:35:00;11.1;9.6;5.8
76043;PMS7003;64740;34.694;33.088;2024-02-21T00:39:20;11.6;9.4;5.9
76043;PMS7003;64740;34.694;33.088;2024-02-21T00:45:00;12.3;10.4;6.4
76043;PMS7003;64740;34.694;33.088;2024-02-21T00:49:52;10.4;9.1;5.9
76043;PMS7003;64740;34.694;33.088;2024-02-21T00:54:51;11.7;9.5;5.8
76043;PMS7003;64740;34.694;33.088;2024-02-21T00:59:37;11.3;10.1;6
76043;PMS7003;64740;34.694;33.088;2024-02-21T01:05:01;11.9;9.8;5.9
76043;PMS7003;64740;34.694;33.088;2024-02-21T01:09:51;10.7;9.2;5.3
76043;PMS7003;64740;34.694;33.088;2024-02-21T01:15:00;11.2;9.3;5.4
76043;PMS7003;64740;34.694;33.088;2024-02-21T01:19:20;11.6;9.2;5.7
76043;PMS7003;64740;34.694;33.088;2024-02-21T01:24:48;11;8.8;5.4
76043;PMS7003;64740;34.694;33.088;2024-02-21T01:29:40;10.3;8.8;5.6
76043;PMS7003;64740;34.694;33.088;2024-02-21T01:34:38;11.5;9.3;5.6
76043;PMS7003;64740;34.694;33.088;2024-02-21T01:39:45;10.5;9.1;5.3
76043;PMS7003;64740;34.694;33.088;2024-02-21T01:44:31;10.5;9.6;5.9
76043;PMS7003;64740;34.694;33.088;2024-02-21T01:49:41;10.8;9.4;5.9
76043;PMS7003;64740;34.694;33.088;2024-02-21T01:55:01;10.2;8.2;5.5
76043;PMS7003;64740;34.694;33.088;2024-02-21T01:59:30;10.1;8.7;5.4
76043;PMS7003;64740;34.694;33.088;2024-02-21T02:05:01;10;8.8;5.4
76043;PMS7003;64740;34.694;33.088;2024-02-21T02:10:01;10.5;8.6;5.4
76043;PMS7003;64740;34.694;33.088;2024-02-21T02:14:36;9.8;8.4;4.8
76043;PMS7003;64740;34.694;33.088;2024-02-21T02:20:01;9.7;8.5;5.2
76043;PMS7003;64740;34.694;33.088;2024-02-21T02:25:01;10.6;8.8;5.5
76043;PMS7003;64740;34.694;33.088;2024-02-21T02:29:51;10.4;8.3;5
76043;PMS7003;64740;34.694;33.088;2024-02-21T02:34:28;9.1;7.9;5
76043;PMS7003;64740;34.694;33.088;2024-02-21T02:39:47;9.3;8.1;5.1
76043;PMS7003;64740;34.694;33.088;2024-02-21T02:44:23;9.7;8.8;5.5
76043;PMS7003;64740;34.694;33.088;2024-02-21T02:50:01;10.3;8.7;5.2
76043;PMS7003;64740;34.694;33.088;2024-02-21T02:54:21;10.6;9.1;5.3
76043;PMS7003;64740;34.694;33.088;2024-02-21T03:00:03;12.2;9.5;5.2
76043;PMS7003;64740;34.694;33.088;2024-02-21T03:04:41;12.2;9.5;5.2
76043;PMS7003;64740;34.694;33.088;2024-02-21T03:09:39;10.1;8.7;5.1
76043;PMS7003;64740;34.694;33.088;2024-02-21T03:14:51;8.9;7.5;4.3
76043;PMS7003;64740;34.694;33.088;2024-02-21T03:19:43;9.9;8.2;5
76043;PMS7003;64740;34.694;33.088;2024-02-21T03:24:21;9.7;8;4.9
76043;PMS7003;64740;34.694;33.088;2024-02-21T03:29:21;9;7.8;4.6
76043;PMS7003;64740;34.694;33.088;2024-02-21T03:34:51;9.6;8.2;5.5
76043;PMS7003;64740;34.694;33.088;2024-02-21T03:39:21;9.1;7.9;4.9
76043;PMS7003;64740;34.694;33.088;2024-02-21T03:44:43;9;8.2;5
76043;PMS7003;64740;34.694;33.088;2024-02-21T03:49:21;9;7.7;5
76043;PMS7003;64740;34.694;33.088;2024-02-21T03:55:01;9.5;7.3;4.4
76043;PMS7003;64740;34.694;33.088;2024-02-21T03:59:39;8.3;7.1;4.7
76043;PMS7003;64740;34.694;33.088;2024-02-21T04:04:23;9.7;8.5;5.2
76043;PMS7003;64740;34.694;33.088;2024-02-21T04:09:29;9;7.7;4.9
76043;PMS7003;64740;34.694;33.088;2024-02-21T04:14:47;9.1;7.7;4.9
76043;PMS7003;64740;34.694;33.088;2024-02-21T04:20:03;9.6;8.3;4.9
76043;PMS7003;64740;34.694;33.088;2024-02-21T04:24:43;9.6;8.3;4.9
76043;PMS7003;64740;34.694;33.088;2024-02-21T04:29:41;9;7.8;4.5
76043;PMS7003;64740;34.694;33.088;2024-02-21T04:35:01;9.7;7.8;4.7
76043;PMS7003;64740;34.694;33.088;2024-02-21T04:40:01;8.9;7.6;4.5
76043;PMS7003;64740;34.694;33.088;2024-02-21T04:44:51;8.9;7.6;4.8
76043;PMS7003;64740;34.694;33.088;2024-02-21T04:49:21;8.6;7.4;4.6
76043;PMS7003;64740;34.694;33.088;2024-02-21T04:54:21;8.3;6.9;4.8
76043;PMS7003;64740;34.694;33.088;2024-02-21T04:59:21;9.8;7.8;4.7
76043;PMS7003;64740;34.694;33.088;2024-02-21T05:04:47;9.8;8.5;5
76043;PMS7003;64740;34.694;33.088;2024-02-21T05:09:47;8.3;7.4;4.1
76043;PMS7003;64740;34.694;33.088;2024-02-21T05:14:35;9.3;8;4.8
76043;PMS7003;64740;34.694;33.088;2024-02-21T05:19:45;8.1;7.4;4.5
76043;PMS7003;64740;34.694;33.088;2024-02-21T05:24:19;9.1;8;5
76043;PMS7003;64740;34.694;33.088;2024-02-21T05:29:37;9.7;8.1;4.9
76043;PMS7003;64740;34.694;33.088;2024-02-21T05:34:48;9.3;7.6;4.9
76043;PMS7003;64740;34.694;33.088;2024-02-21T05:39:21;10.5;8.1;4.8
76043;PMS7003;64740;34.694;33.088;2024-02-21T05:44:37;8.6;7;4.1
76043;PMS7003;64740;34.694;33.088;2024-02-21T05:49:21;8.9;7.5;4.7
76043;PMS7003;64740;34.694;33.088;2024-02-21T05:54:37;8.2;7.3;4.7
76043;PMS7003;64740;34.694;33.088;2024-02-21T05:59:35;9.2;7.7;4.8
76043;PMS7003;64740;34.694;33.088;2024-02-21T06:04:19;9.6;8;5.1
76043;PMS7003;64740;34.694;33.088;2024-02-21T06:09:29;9.9;8.3;5.1
76043;PMS7003;64740;34.694;33.088;2024-02-21T06:14:37;10.2;8.2;5.2
76043;PMS7003;64740;34.694;33.088;2024-02-21T06:19:31;9.8;8.1;5.5
76043;PMS7003;64740;34.694;33.088;2024-02-21T06:24:41;9.3;7.9;4.7
76043;PMS7003;64740;34.694;33.088;2024-02-21T06:29:19;10.5;8.2;4.8
76043;PMS7003;64740;34.694;33.088;2024-02-21T06:34:19;11.3;9;5.2
76043;PMS7003;64740;34.694;33.088;2024-02-21T06:39:27;10.6;8.4;5.2
76043;PMS7003;64740;34.694;33.088;2024-02-21T06:44:19;11;9.2;5.7
76043;PMS7003;64740;34.694;33.088;2024-02-21T06:49:27;9.9;8.9;5.1
76043;PMS7003;64740;34.694;33.088;2024-02-21T06:54:29;10.1;8.6;5.3
76043;PMS7003;64740;34.694;33.088;2024-02-21T06:59:35;11.2;8.6;5.3
76043;PMS7003;64740;34.694;33.088;2024-02-21T07:04:59;11.3;9;5.8
76043;PMS7003;64740;34.694;33.088;2024-02-21T07:09:49;10.6;8.6;5.3
76043;PMS7003;64740;34.694;33.088;2024-02-21T07:14:47;10.6;8.6;5.4
76043;PMS7003;64740;34.694;33.088;2024-02-21T07:19:35;9.5;8.7;5.4
76043;PMS7003;64740;34.694;33.088;2024-02-21T07:24:29;10.5;9;5.9
76043;PMS7003;64740;34.694;33.088;2024-02-21T07:29:51;12.3;8.8;5.3
76043;PMS7003;64740;34.694;33.088;2024-02-21T07:34:37;9.6;8.6;5.3
76043;PMS7003;64740;34.694;33.088;2024-02-21T07:39:19;10.3;8.8;5.5
76043;PMS7003;64740;34.694;33.088;2024-02-21T07:44:49;10;8.3;5.5
76043;PMS7003;64740;34.694;33.088;2024-02-21T07:50:01;10.8;9.2;5.7
76043;PMS7003;64740;34.694;33.088;2024-02-21T07:54:31;10.4;8.4;5.3
76043;PMS7003;64740;34.694;33.088;2024-02-21T07:59:51;10.6;8.8;5.5
76043;PMS7003;64740;34.694;33.088;2024-02-21T08:04:19;8.8;8.3;5.2
76043;PMS7003;64740;34.694;33.088;2024-02-21T08:09:27;9.9;8.6;5.6
76043;PMS7003;64740;34.694;33.088;2024-02-21T08:14:27;10.2;8.5;5.4
76043;PMS7003;64740;34.694;33.088;2024-02-21T08:19:29;10.4;9;5.5
76043;PMS7003;64740;34.694;33.088;2024-02-21T08:24:31;10.6;8.8;5.8
76043;PMS7003;64740;34.694;33.088;2024-02-21T08:30:01;10.9;8.3;5.5
76043;PMS7003;64740;34.694;33.088;2024-02-21T08:34:49;10.7;8.9;5.6
76043;PMS7003;64740;34.694;33.088;2024-02-21T08:40:01;9.4;8.6;5.3
76043;PMS7003;64740;34.694;33.088;2024-02-21T08:44:59;10.2;8.6;5.4
76043;PMS7003;64740;34.694;33.088;2024-02-21T08:49:49;10.7;8.7;5.4
76043;PMS7003;64740;34.694;33.088;2024-02-21T08:54:59;9.9;8.7;5.6
76043;PMS7003;64740;34.694;33.088;2024-02-21T09:00:01;9.8;8.4;5.5
76043;PMS7003;64740;34.694;33.088;2024-02-21T09:04:51;11.1;8.7;5.5
76043;PMS7003;64740;34.694;33.088;2024-02-21T09:09:23;10.4;8.6;5.6
76043;PMS7003;64740;34.694;33.088;2024-02-21T09:14:45;10.4;8.7;5.7
76043;PMS7003;64740;34.694;33.088;2024-02-21T09:19:23;9.9;8.3;5.4
76043;PMS7003;64740;34.694;33.088;2024-02-21T09:24:29;10.2;7.8;4.7
76043;PMS7003;64740;34.694;33.088;2024-02-21T09:29:41;10.2;8.9;5.5
76043;PMS7003;64740;34.694;33.088;2024-02-21T09:35:01;10.5;9.3;5.6
76043;PMS7003;64740;34.694;33.088;2024-02-21T09:39:39;8.6;7.9;5
76043;PMS7003;64740;34.694;33.088;2024-02-21T09:44:19;10.5;9.1;5.8
76043;PMS7003;64740;34.694;33.088;2024-02-21T09:49:21;9.9;8.2;4.9
76043;PMS7003;64740;34.694;33.088;2024-02-21T09:54:35;9.8;8.6;5.2
76043;PMS7003;64740;34.694;33.088;2024-02-21T09:59:27;10.3;8.7;5.5
76043;PMS7003;64740;34.694;33.088;2024-02-21T10:04:19;8.8;7.5;4.5
76043;PMS7003;64740;34.694;33.088;2024-02-21T10:09:49;9.8;8.5;4.9
76043;PMS7003;64740;34.694;33.088;2024-02-21T10:14:27;10.4;8.5;5.2
76043;PMS7003;64740;34.694;33.088;2024-02-21T10:20:06;10.2;8.7;5.2
76043;PMS7003;64740;34.694;33.088;2024-02-21T10:25:06;7.7;6.8;4.4
76043;PMS7003;64740;34.694;33.088;2024-02-21T10:29:59;9.9;9.1;5.3
76043;PMS7003;64740;34.694;33.088;2024-02-21T10:34:39;9.6;8.5;5.3
76043;PMS7003;64740;34.694;33.088;2024-02-21T10:39:51;9.3;7.9;5
76043;PMS7003;64740;34.694;33.088;2024-02-21T10:44:21;9.5;8;5.2
76043;PMS7003;64740;34.694;33.088;2024-02-21T10:49:39;8.3;6.8;4.6
76043;PMS7003;64740;34.694;33.088;2024-02-21T10:54:47;9;7.9;5
76043;PMS7003;64740;34.694;33.088;2024-02-21T10:59:31;8.7;7.8;4.7
76043;PMS7003;64740;34.694;33.088;2024-02-21T11:04:33;9.8;8;5.1
76043;PMS7003;64740;34.694;33.088;2024-02-21T11:09:51;9.9;8.5;5.3
76043;PMS7003;64740;34.694;33.088;2024-02-21T11:14:51;10.2;8.5;5.4
76043;PMS7003;64740;34.694;33.088;2024-02-21T11:19:51;9.6;7.9;5.4
76043;PMS7003;64740;34.694;33.088;2024-02-21T11:24:29;10.1;8.5;5.3
76043;PMS7003;64740;34.694;33.088;2024-02-21T11:29:40;10.5;8.4;5.1
76043;PMS7003;64740;34.694;33.088;2024-02-21T11:34:41;9.1;7.9;4.9
76043;PMS7003;64740;34.694;33.088;2024-02-21T11:40:01;9.9;8.7;5.1
76043;PMS7003;64740;34.694;33.088;2024-02-21T11:44:43;10.1;8.5;5.3
76043;PMS7003;64740;34.694;33.088;2024-02-21T11:50:03;8.5;7.5;4.6
76043;PMS7003;64740;34.694;33.088;2024-02-21T11:55:01;8.5;7.5;4.6
76043;PMS7003;64740;34.694;33.088;2024-02-21T12:00:10;8.5;7.1;4.5
76043;PMS7003;64740;34.694;33.088;2024-02-21T12:05:03;9.8;9;5.8
76043;PMS7003;64740;34.694;33.088;2024-02-21T12:09:22;9.8;9;5.8
76043;PMS7003;64740;34.694;33.088;2024-02-21T12:19:43;10.1;8.6;5.6
76043;PMS7003;64740;34.694;33.088;2024-02-21T12:24:23;10.3;8.9;5.4
76043;PMS7003;64740;34.694;33.088;2024-02-21T12:30:01;9.5;8.3;5.1
76043;PMS7003;64740;34.694;33.088;2024-02-21T12:34:49;9.6;8.5;5.4
76043;PMS7003;64740;34.694;33.088;2024-02-21T12:39:39;10.7;8.6;5.5
76043;PMS7003;64740;34.694;33.088;2024-02-21T12:45:01;9.8;8.5;5.2
76043;PMS7003;64740;34.694;33.088;2024-02-21T12:50:01;9.5;8.7;5.6
76043;PMS7003;64740;34.694;33.088;2024-02-21T12:54:51;9.5;8.7;5.5
76043;PMS7003;64740;34.694;33.088;2024-02-21T12:59:21;10.1;8.3;5
76043;PMS7003;64740;34.694;33.088;2024-02-21T13:04:31;9.3;8.3;5.4
76043;PMS7003;64740;34.694;33.088;2024-02-21T13:09:29;9.9;8.6;5.3
76043;PMS7003;64740;34.694;33.088;2024-02-21T13:14:31;12;10.1;6.1
76043;PMS7003;64740;34.694;33.088;2024-02-21T13:19:21;11.1;9.3;6.2
76043;PMS7003;64740;34.694;33.088;2024-02-21T13:24:29;9.2;8.4;5.6
76043;PMS7003;64740;34.694;33.088;2024-02-21T13:29:47;9.1;8.3;5.2
76043;PMS7003;64740;34.694;33.088;2024-02-21T13:34:37;10.6;8.5;5.5
76043;PMS7003;64740;34.694;33.088;2024-02-21T13:40:01;12.2;10.2;6.4
76043;PMS7003;64740;34.694;33.088;2024-02-21T13:44:31;10.7;9.5;6
76043;PMS7003;64740;34.694;33.088;2024-02-21T13:49:31;10.3;8.7;5.4
76043;PMS7003;64740;34.694;33.088;2024-02-21T13:54:43;8.7;7.7;4.8
76043;PMS7003;64740;34.694;33.088;2024-02-21T13:59:47;9.2;8;4.8
76043;PMS7003;64740;34.694;33.088;2024-02-21T14:04:43;8;7;4.5
76043;PMS7003;64740;34.694;33.088;2024-02-21T14:09:29;8.4;7.8;5
76043;PMS7003;64740;34.694;33.088;2024-02-21T14:14:41;9.3;8.4;5.2
76043;PMS7003;64740;34.694;33.088;2024-02-21T14:19:51;9.5;8.4;5.1
76043;PMS7003;64740;34.694;33.088;2024-02-21T14:24:33;9.4;8.1;5
76043;PMS7003;64740;34.694;33.088;2024-02-21T14:29:33;9.2;8;5
76043;PMS7003;64740;34.694;33.088;2024-02-21T14:34:23;9.5;7.8;4.8
76043;PMS7003;64740;34.694;33.088;2024-02-21T14:39:37;11.8;9.6;6.5
76043;PMS7003;64740;34.694;33.088;2024-02-21T14:44:21;11.2;9.7;5.9
76043;PMS7003;64740;34.694;33.088;2024-02-21T14:49:41;9.3;8.3;5.2
76043;PMS7003;64740;34.694;33.088;2024-02-21T14:54:47;9.9;8.3;5.1
76043;PMS7003;64740;34.694;33.088;2024-02-21T14:59:33;9.2;8.3;5.1
76043;PMS7003;64740;34.694;33.088;2024-02-21T15:05:03;9.1;7.7;5
76043;PMS7003;64740;34.694;33.088;2024-02-21T15:09:43;9.1;7.7;5
76043;PMS7003;64740;34.694;33.088;2024-02-21T15:15:01;9.4;8;5.1
76043;PMS7003;64740;34.694;33.088;2024-02-21T15:19:41;9.8;8.2;4.9
76043;PMS7003;64740;34.694;33.088;2024-02-21T15:24:49;9.2;8;5
76043;PMS7003;64740;34.694;33.088;2024-02-21T15:30:01;9.4;8.5;5.2
76043;PMS7003;64740;34.694;33.088;2024-02-21T15:35:01;9.1;8.5;5.5
76043;PMS7003;64740;34.694;33.088;2024-02-21T15:39:51;12.5;10.3;5.9
76043;PMS7003;64740;34.694;33.088;2024-02-21T15:44:43;12.2;10.5;6.6
76043;PMS7003;64740;34.694;33.088;2024-02-21T15:49:31;10.9;9.1;5.8
76043;PMS7003;64740;34.694;33.088;2024-02-21T15:54:39;11.6;10;6.3
76043;PMS7003;64740;34.694;33.088;2024-02-21T16:00:02;11.3;9.8;6.3
76043;PMS7003;64740;34.694;33.088;2024-02-21T16:04:41;10.9;9.6;5.7
76043;PMS7003;64740;34.694;33.088;2024-02-21T16:10:01;11.3;9.7;6.3
76043;PMS7003;64740;34.694;33.088;2024-02-21T16:14:29;11.1;9.7;6.2
76043;PMS7003;64740;34.694;33.088;2024-02-21T16:19:39;12.2;10.6;6.8
76043;PMS7003;64740;34.694;33.088;2024-02-21T16:24:29;10.5;9.8;6.5
76043;PMS7003;64740;34.694;33.088;2024-02-21T16:29:37;13.5;11;6.9
76043;PMS7003;64740;34.694;33.088;2024-02-21T16:34:21;13.3;12;7.6
76043;PMS7003;64740;34.694;33.088;2024-02-21T16:40:03;17.1;14.4;9.1
76043;PMS7003;64740;34.694;33.088;2024-02-21T16:45:03;19.4;17.4;11
76043;PMS7003;64740;34.694;33.088;2024-02-21T16:50:03;23.3;20.6;12.6
76043;PMS7003;64740;34.694;33.088;2024-02-21T16:55:03;30.1;25.8;15.4
76043;PMS7003;64740;34.694;33.088;2024-02-21T16:59:37;30.1;25.8;15.4
76043;PMS7003;64740;34.694;33.088;2024-02-21T17:05:03;24.2;21.1;12.9
76043;PMS7003;64740;34.694;33.088;2024-02-21T17:10:03;23.5;20.9;12.6
76043;PMS7003;64740;34.694;33.088;2024-02-21T17:14:27;23.5;20.9;12.6
76043;PMS7003;64740;34.694;33.088;2024-02-21T17:19:37;21.5;18.9;12
76043;PMS7003;64740;34.694;33.088;2024-02-21T17:24:23;21.2;17;10.8
76043;PMS7003;64740;34.694;33.088;2024-02-21T17:29:39;20;17;10.7
76043;PMS7003;64740;34.694;33.088;2024-02-21T17:35:03;19.8;16.8;10.9
76043;PMS7003;64740;34.694;33.088;2024-02-21T17:39:21;19.8;16.8;10.9
76043;PMS7003;64740;34.694;33.088;2024-02-21T17:45:03;20.2;17.5;11.1
76043;PMS7003;64740;34.694;33.088;2024-02-21T17:49:29;20.2;17.5;11.1
76043;PMS7003;64740;34.694;33.088;2024-02-21T17:54:29;20;17.2;10.9
76043;PMS7003;64740;34.694;33.088;2024-02-21T17:59:35;18.8;16.2;9.9
76043;PMS7003;64740;34.694;33.088;2024-02-21T18:04:21;17;14.9;9.4
76043;PMS7003;64740;34.694;33.088;2024-02-21T18:09:29;16.5;13.7;8.8
76043;PMS7003;64740;34.694;33.088;2024-02-21T18:14:29;19.4;16.7;10.5
76043;PMS7003;64740;34.694;33.088;2024-02-21T18:19:53;18;16;9.7
76043;PMS7003;64740;34.694;33.088;2024-02-21T18:24:21;16.7;14.7;9.2
76043;PMS7003;64740;34.694;33.088;2024-02-21T18:30:03;19.6;16.2;10.4
76043;PMS7003;64740;34.694;33.088;2024-02-21T18:34:37;19.6;16.2;10.4
76043;PMS7003;64740;34.694;33.088;2024-02-21T18:40:03;17.4;15.6;9.8
76043;PMS7003;64740;34.694;33.088;2024-02-21T18:44:37;17.4;15.6;9.8
76043;PMS7003;64740;34.694;33.088;2024-02-21T18:49:23;16.8;14.5;9.1
76043;PMS7003;64740;34.694;33.088;2024-02-21T18:54:53;18.2;15.6;9.7
76043;PMS7003;64740;34.694;33.088;2024-02-21T18:59:47;17.8;15.5;9.3
76043;PMS7003;64740;34.694;33.088;2024-02-21T19:09:53;18.8;16.8;10.1
76043;PMS7003;64740;34.694;33.088;2024-02-21T19:14:51;17.6;14.7;9.3
76043;PMS7003;64740;34.694;33.088;2024-02-21T19:19:59;17.6;15.3;9.3
76043;PMS7003;64740;34.694;33.088;2024-02-21T19:25:05;19.8;16;10
76043;PMS7003;64740;34.694;33.088;2024-02-21T19:29:53;19.8;16;10
76043;PMS7003;64740;34.694;33.088;2024-02-21T19:34:33;18;15.5;10.3
76043;PMS7003;64740;34.694;33.088;2024-02-21T19:39:21;18.7;15.7;9.5
76043;PMS7003;64740;34.694;33.088;2024-02-21T19:44:29;18.4;16.6;10.3
76043;PMS7003;64740;34.694;33.088;2024-02-21T19:49:21;17.5;15.1;9.7
76043;PMS7003;64740;34.694;33.088;2024-02-21T19:54:21;19.7;17.1;10.4
76043;PMS7003;64740;34.694;33.088;2024-02-21T19:59:37;19.8;17.4;10.7
76043;PMS7003;64740;34.694;33.088;2024-02-21T20:04:47;17.9;16.2;10.1
76043;PMS7003;64740;34.694;33.088;2024-02-21T20:09:40;18.4;16.3;10.1
76043;PMS7003;64740;34.694;33.088;2024-02-21T20:15:01;16.9;15.1;9.6
76043;PMS7003;64740;34.694;33.088;2024-02-21T20:19:53;19.5;16.6;9.9
76043;PMS7003;64740;34.694;33.088;2024-02-21T20:24:47;18.2;15.9;9.9
76043;PMS7003;64740;34.694;33.088;2024-02-21T20:29:21;18.6;15.1;9.5
76043;PMS7003;64740;34.694;33.088;2024-02-21T20:34:39;18.2;15.3;9.5
76043;PMS7003;64740;34.694;33.088;2024-02-21T20:39:23;17.9;15.8;9.5
76043;PMS7003;64740;34.694;33.088;2024-02-21T20:44:23;19.6;15;9.6
76043;PMS7003;64740;34.694;33.088;2024-02-21T20:49:21;18.3;16;10.3
76043;PMS7003;64740;34.694;33.088;2024-02-21T20:54:53;17;14.8;9.5
76043;PMS7003;64740;34.694;33.088;2024-02-21T21:00:04;18.7;15.7;10
76043;PMS7003;64740;34.694;33.088;2024-02-21T21:04:41;18.7;15.7;10
76043;PMS7003;64740;34.694;33.088;2024-02-21T21:10:03;18.4;15.1;9.4
76043;PMS7003;64740;34.694;33.088;2024-02-21T21:14:27;18.4;15.1;9.4
76043;PMS7003;64740;34.694;33.088;2024-02-21T21:19:21;17;14.6;8.7
76043;PMS7003;64740;34.694;33.088;2024-02-21T21:24:35;17.8;15.4;9.7
76043;PMS7003;64740;34.694;33.088;2024-02-21T21:29:21;16.6;14.5;8.9
76043;PMS7003;64740;34.694;33.088;2024-02-21T21:34:45;15.5;13.8;9.5
76043;PMS7003;64740;34.694;33.088;2024-02-21T21:39:45;16;14.5;9.1
76043;PMS7003;64740;34.694;33.088;2024-02-21T21:44:29;16.6;14;9.2
76043;PMS7003;64740;34.694;33.088;2024-02-21T21:50:03;16.7;14.5;9
76043;PMS7003;64740;34.694;33.088;2024-02-21T21:54:43;16.7;14.5;9
76043;PMS7003;64740;34.694;33.088;2024-02-21T21:59:45;15.5;14.1;9
76043;PMS7003;64740;34.694;33.088;2024-02-21T22:04:35;16.3;14.1;9
76043;PMS7003;64740;34.694;33.088;2024-02-21T22:09:37;16.1;13.8;9
76043;PMS7003;64740;34.694;33.088;2024-02-21T22:14:51;16.2;14;9.1
76043;PMS7003;64740;34.694;33.088;2024-02-21T22:19:21;16.2;14.2;9.4
76043;PMS7003;64740;34.694;33.088;2024-02-21T22:24:41;20.8;18.7;11
76043;PMS7003;64740;34.694;33.088;2024-02-21T22:29:53;18.4;15.8;10.1
76043;PMS7003;64740;34.694;33.088;2024-02-21T22:35:03;16.9;14.4;9.2
76043;PMS7003;64740;34.694;33.088;2024-02-21T22:39:21;16.9;14.4;9.2
76043;PMS7003;64740;34.694;33.088;2024-02-21T22:44:53;16.7;14.3;8.8
76043;PMS7003;64740;34.694;33.088;2024-02-21T22:49:47;15.7;13.8;8.6
76043;PMS7003;64740;34.694;33.088;2024-02-21T22:54:53;15.6;13.1;8.4
76043;PMS7003;64740;34.694;33.088;2024-02-21T22:59:29;16;14;8.9
76043;PMS7003;64740;34.694;33.088;2024-02-21T23:04:21;14.5;12.7;7.8
76043;PMS7003;64740;34.694;33.088;2024-02-21T23:09:35;15.6;13.6;8.8
76043;PMS7003;64740;34.694;33.088;2024-02-21T23:15:06;16.2;14.1;8.5
76043;PMS7003;64740;34.694;33.088;2024-02-21T23:19:53;16.2;14.1;8.5
76043;PMS7003;64740;34.694;33.088;2024-02-21T23:24:55;15.2;13;8.1
76043;PMS7003;64740;34.694;33.088;2024-02-21T23:30:03;15;12.7;8
76043;PMS7003;64740;34.694;33.088;2024-02-21T23:34:29;15;12.7;8
76043;PMS7003;64740;34.694;33.088;2024-02-21T23:40:03;16.5;13.2;8.4
76043;PMS7003;64740;34.694;33.088;2024-02-21T23:45:05;13.6;12.3;7.7
76043;PMS7003;64740;34.694;33.088;2024-02-21T23:49:45;13.6;12.3;7.7
76043;PMS7003;64740;34.694;33.088;2024-02-21T23:54:31;14.9;12.4;8
76043;PMS7003;64740;34.694;33.088;2024-02-21T23:59:39;14;12.1;7.5
